sensor_id;sensor_type;location;lat;lon;timestamp;temperature;humidity
42261;DHT22;27926;48.062;7.474;2023-08-07T00:02:09;14.80;99.90
42261;DHT22;27926;48.062;7.474;2023-08-07T00:04:33;14.80;99.90
42261;DHT22;27926;48.062;7.474;2023-08-07T00:06:58;14.80;99.90
42261;DHT22;27926;48.062;7.474;2023-08-07T00:09:22;14.80;99.90
42261;DHT22;27926;48.062;7.474;2023-08-07T00:11:47;14.70;99.90
42261;DHT22;27926;48.062;7.474;2023-08-07T00:14:12;14.70;99.90
42261;DHT22;27926;48.062;7.474;2023-08-07T00:16:36;14.70;99.90
42261;DHT22;27926;48.062;7.474;2023-08-07T00:19:02;14.70;99.90
42261;DHT22;27926;48.062;7.474;2023-08-07T00:21:27;14.60;99.90
42261;DHT22;27926;48.062;7.474;2023-08-07T00:23:51;14.60;99.90
42261;DHT22;27926;48.062;7.474;2023-08-07T00:26:17;14.60;99.90
42261;DHT22;27926;48.062;7.474;2023-08-07T00:28:42;14.60;99.90
42261;DHT22;27926;48.062;7.474;2023-08-07T00:31:07;14.50;99.90
42261;DHT22;27926;48.062;7.474;2023-08-07T00:33:31;14.50;99.90
42261;DHT22;27926;48.062;7.474;2023-08-07T00:35:56;14.50;99.90
42261;DHT22;27926;48.062;7.474;2023-08-07T00:38:20;14.40;99.90
42261;DHT22;27926;48.062;7.474;2023-08-07T00:40:45;14.40;99.90
42261;DHT22;27926;48.062;7.474;2023-08-07T00:43:09;14.40;99.90
42261;DHT22;27926;48.062;7.474;2023-08-07T00:45:38;14.30;99.90
42261;DHT22;27926;48.062;7.474;2023-08-07T00:48:05;14.30;99.90
42261;DHT22;27926;48.062;7.474;2023-08-07T00:50:29;14.40;99.90
42261;DHT22;27926;48.062;7.474;2023-08-07T00:52:55;14.40;99.90
42261;DHT22;27926;48.062;7.474;2023-08-07T00:55:20;14.40;99.90
42261;DHT22;27926;48.062;7.474;2023-08-07T00:57:44;14.50;99.90
42261;DHT22;27926;48.062;7.474;2023-08-07T01:00:10;14.50;99.90
42261;DHT22;27926;48.062;7.474;2023-08-07T01:02:34;14.50;99.90
42261;DHT22;27926;48.062;7.474;2023-08-07T01:04:59;14.50;99.90
42261;DHT22;27926;48.062;7.474;2023-08-07T01:07:24;14.50;99.90
42261;DHT22;27926;48.062;7.474;2023-08-07T01:09:49;14.50;99.90
42261;DHT22;27926;48.062;7.474;2023-08-07T01:12:18;14.40;99.90
42261;DHT22;27926;48.062;7.474;2023-08-07T01:17:22;14.10;99.90
42261;DHT22;27926;48.062;7.474;2023-08-07T01:19:50;14.00;99.90
42261;DHT22;27926;48.062;7.474;2023-08-07T01:22:17;13.80;99.90
42261;DHT22;27926;48.062;7.474;2023-08-07T01:24:44;13.70;99.90
42261;DHT22;27926;48.062;7.474;2023-08-07T01:29:59;13.40;99.90
42261;DHT22;27926;48.062;7.474;2023-08-07T01:35:29;13.10;99.90
42261;DHT22;27926;48.062;7.474;2023-08-07T01:37:56;13.00;99.90
42261;DHT22;27926;48.062;7.474;2023-08-07T01:40:22;12.90;99.90
42261;DHT22;27926;48.062;7.474;2023-08-07T01:42:47;12.80;99.90
42261;DHT22;27926;48.062;7.474;2023-08-07T01:45:12;12.70;99.90
42261;DHT22;27926;48.062;7.474;2023-08-07T01:47:36;12.60;99.90
42261;DHT22;27926;48.062;7.474;2023-08-07T01:50:01;12.50;99.90
42261;DHT22;27926;48.062;7.474;2023-08-07T01:52:26;12.40;99.90
42261;DHT22;27926;48.062;7.474;2023-08-07T01:54:51;12.40;99.90
42261;DHT22;27926;48.062;7.474;2023-08-07T01:57:15;12.40;99.90
42261;DHT22;27926;48.062;7.474;2023-08-07T01:59:40;12.40;99.90
42261;DHT22;27926;48.062;7.474;2023-08-07T02:02:05;12.40;99.90
42261;DHT22;27926;48.062;7.474;2023-08-07T02:04:29;12.60;99.90
42261;DHT22;27926;48.062;7.474;2023-08-07T02:06:54;12.80;99.90
42261;DHT22;27926;48.062;7.474;2023-08-07T02:09:18;12.90;99.90
42261;DHT22;27926;48.062;7.474;2023-08-07T02:11:43;12.90;99.90
42261;DHT22;27926;48.062;7.474;2023-08-07T02:14:08;13.00;99.90
42261;DHT22;27926;48.062;7.474;2023-08-07T02:16:33;12.90;99.90
42261;DHT22;27926;48.062;7.474;2023-08-07T02:18:57;13.00;99.90
42261;DHT22;27926;48.062;7.474;2023-08-07T02:21:24;13.10;99.90
42261;DHT22;27926;48.062;7.474;2023-08-07T02:23:49;13.10;99.90
42261;DHT22;27926;48.062;7.474;2023-08-07T02:26:13;13.10;99.90
42261;DHT22;27926;48.062;7.474;2023-08-07T02:28:38;13.10;99.90
42261;DHT22;27926;48.062;7.474;2023-08-07T02:31:03;13.10;99.90
42261;DHT22;27926;48.062;7.474;2023-08-07T02:33:27;13.10;99.90
42261;DHT22;27926;48.062;7.474;2023-08-07T02:35:54;13.10;99.90
42261;DHT22;27926;48.062;7.474;2023-08-07T02:38:19;13.10;99.90
42261;DHT22;27926;48.062;7.474;2023-08-07T02:40:43;13.10;99.90
42261;DHT22;27926;48.062;7.474;2023-08-07T02:43:08;13.20;99.90
42261;DHT22;27926;48.062;7.474;2023-08-07T02:45:34;13.20;99.90
42261;DHT22;27926;48.062;7.474;2023-08-07T02:47:58;13.20;99.90
42261;DHT22;27926;48.062;7.474;2023-08-07T02:50:23;13.20;99.90
42261;DHT22;27926;48.062;7.474;2023-08-07T02:52:49;13.20;99.90
42261;DHT22;27926;48.062;7.474;2023-08-07T02:55:13;13.10;99.90
42261;DHT22;27926;48.062;7.474;2023-08-07T02:57:38;13.10;99.90
42261;DHT22;27926;48.062;7.474;2023-08-07T03:00:03;13.10;99.90
42261;DHT22;27926;48.062;7.474;2023-08-07T03:02:27;13.00;99.90
42261;DHT22;27926;48.062;7.474;2023-08-07T03:04:53;13.00;99.90
42261;DHT22;27926;48.062;7.474;2023-08-07T03:07:17;13.00;99.90
42261;DHT22;27926;48.062;7.474;2023-08-07T03:09:45;13.00;99.90
42261;DHT22;27926;48.062;7.474;2023-08-07T03:12:10;13.00;99.90
42261;DHT22;27926;48.062;7.474;2023-08-07T03:14:35;13.00;99.90
42261;DHT22;27926;48.062;7.474;2023-08-07T03:16:59;13.00;99.90
42261;DHT22;27926;48.062;7.474;2023-08-07T03:19:24;13.00;99.90
42261;DHT22;27926;48.062;7.474;2023-08-07T03:21:48;13.00;99.90
42261;DHT22;27926;48.062;7.474;2023-08-07T03:24:13;13.00;99.90
42261;DHT22;27926;48.062;7.474;2023-08-07T03:26:38;13.10;99.90
42261;DHT22;27926;48.062;7.474;2023-08-07T03:29:02;13.10;99.90
42261;DHT22;27926;48.062;7.474;2023-08-07T03:31:27;13.10;99.90
42261;DHT22;27926;48.062;7.474;2023-08-07T03:33:51;13.10;99.90
42261;DHT22;27926;48.062;7.474;2023-08-07T03:36:16;13.10;99.90
42261;DHT22;27926;48.062;7.474;2023-08-07T03:38:40;13.20;99.90
42261;DHT22;27926;48.062;7.474;2023-08-07T03:41:05;13.20;99.90
42261;DHT22;27926;48.062;7.474;2023-08-07T03:43:30;13.20;99.90
42261;DHT22;27926;48.062;7.474;2023-08-07T03:45:55;13.20;99.90
42261;DHT22;27926;48.062;7.474;2023-08-07T03:48:23;13.20;99.90
42261;DHT22;27926;48.062;7.474;2023-08-07T03:50:47;13.20;99.90
42261;DHT22;27926;48.062;7.474;2023-08-07T03:53:12;13.20;99.90
42261;DHT22;27926;48.062;7.474;2023-08-07T03:55:36;13.20;99.90
42261;DHT22;27926;48.062;7.474;2023-08-07T03:58:02;13.20;99.90
42261;DHT22;27926;48.062;7.474;2023-08-07T04:00:27;13.30;99.90
42261;DHT22;27926;48.062;7.474;2023-08-07T04:02:51;13.20;99.90
42261;DHT22;27926;48.062;7.474;2023-08-07T04:05:16;13.30;99.90
42261;DHT22;27926;48.062;7.474;2023-08-07T04:07:40;13.20;99.90
42261;DHT22;27926;48.062;7.474;2023-08-07T04:10:05;13.20;99.90
42261;DHT22;27926;48.062;7.474;2023-08-07T04:12:30;13.20;99.90
42261;DHT22;27926;48.062;7.474;2023-08-07T04:14:55;13.20;99.90
42261;DHT22;27926;48.062;7.474;2023-08-07T04:17:19;13.30;99.90
42261;DHT22;27926;48.062;7.474;2023-08-07T04:19:44;13.30;99.90
42261;DHT22;27926;48.062;7.474;2023-08-07T04:22:08;13.30;99.90
42261;DHT22;27926;48.062;7.474;2023-08-07T04:24:33;13.30;99.90
42261;DHT22;27926;48.062;7.474;2023-08-07T04:26:58;13.30;99.90
42261;DHT22;27926;48.062;7.474;2023-08-07T04:29:23;13.40;99.90
42261;DHT22;27926;48.062;7.474;2023-08-07T04:31:48;13.30;99.90
42261;DHT22;27926;48.062;7.474;2023-08-07T04:34:12;13.30;99.90
42261;DHT22;27926;48.062;7.474;2023-08-07T04:36:37;13.30;99.90
42261;DHT22;27926;48.062;7.474;2023-08-07T04:39:01;13.30;99.90
42261;DHT22;27926;48.062;7.474;2023-08-07T04:41:27;13.30;99.90
42261;DHT22;27926;48.062;7.474;2023-08-07T04:43:52;13.30;99.90
42261;DHT22;27926;48.062;7.474;2023-08-07T04:46:16;13.30;99.90
42261;DHT22;27926;48.062;7.474;2023-08-07T04:48:41;13.40;99.90
42261;DHT22;27926;48.062;7.474;2023-08-07T04:51:06;13.40;99.90
42261;DHT22;27926;48.062;7.474;2023-08-07T04:53:30;13.40;99.90
42261;DHT22;27926;48.062;7.474;2023-08-07T04:55:55;13.40;99.90
42261;DHT22;27926;48.062;7.474;2023-08-07T04:58:20;13.40;99.90
42261;DHT22;27926;48.062;7.474;2023-08-07T05:00:44;13.50;99.90
42261;DHT22;27926;48.062;7.474;2023-08-07T05:03:09;13.50;99.90
42261;DHT22;27926;48.062;7.474;2023-08-07T05:05:34;13.50;99.90
42261;DHT22;27926;48.062;7.474;2023-08-07T05:07:58;13.50;99.90
42261;DHT22;27926;48.062;7.474;2023-08-07T05:10:23;13.50;99.90
42261;DHT22;27926;48.062;7.474;2023-08-07T05:12:48;13.50;99.90
42261;DHT22;27926;48.062;7.474;2023-08-07T05:15:13;13.60;99.90
42261;DHT22;27926;48.062;7.474;2023-08-07T05:17:37;13.60;99.90
42261;DHT22;27926;48.062;7.474;2023-08-07T05:20:05;13.70;99.90
42261;DHT22;27926;48.062;7.474;2023-08-07T05:22:30;13.70;99.90
42261;DHT22;27926;48.062;7.474;2023-08-07T05:24:54;13.80;99.90
42261;DHT22;27926;48.062;7.474;2023-08-07T05:27:19;13.80;99.90
42261;DHT22;27926;48.062;7.474;2023-08-07T05:29:44;13.80;99.90
42261;DHT22;27926;48.062;7.474;2023-08-07T05:32:10;13.90;99.90
42261;DHT22;27926;48.062;7.474;2023-08-07T05:34:34;13.90;99.90
42261;DHT22;27926;48.062;7.474;2023-08-07T05:36:59;13.90;99.90
42261;DHT22;27926;48.062;7.474;2023-08-07T05:39:24;14.00;99.90
42261;DHT22;27926;48.062;7.474;2023-08-07T05:41:48;14.00;99.90
42261;DHT22;27926;48.062;7.474;2023-08-07T05:44:13;14.10;99.90
42261;DHT22;27926;48.062;7.474;2023-08-07T05:46:37;14.00;99.90
42261;DHT22;27926;48.062;7.474;2023-08-07T05:49:02;14.10;99.90
42261;DHT22;27926;48.062;7.474;2023-08-07T05:51:27;14.10;99.90
42261;DHT22;27926;48.062;7.474;2023-08-07T05:53:51;14.30;99.90
42261;DHT22;27926;48.062;7.474;2023-08-07T05:56:16;14.40;99.90
42261;DHT22;27926;48.062;7.474;2023-08-07T05:58:42;14.50;99.90
42261;DHT22;27926;48.062;7.474;2023-08-07T06:01:06;14.60;99.90
42261;DHT22;27926;48.062;7.474;2023-08-07T06:03:31;14.70;99.90
42261;DHT22;27926;48.062;7.474;2023-08-07T06:05:57;14.80;99.90
42261;DHT22;27926;48.062;7.474;2023-08-07T06:08:21;14.90;99.90
42261;DHT22;27926;48.062;7.474;2023-08-07T06:10:46;15.00;99.90
42261;DHT22;27926;48.062;7.474;2023-08-07T06:13:10;15.10;99.90
42261;DHT22;27926;48.062;7.474;2023-08-07T06:15:35;15.20;99.90
42261;DHT22;27926;48.062;7.474;2023-08-07T06:17:59;15.20;99.90
42261;DHT22;27926;48.062;7.474;2023-08-07T06:20:24;15.10;99.90
42261;DHT22;27926;48.062;7.474;2023-08-07T06:22:48;15.10;99.90
42261;DHT22;27926;48.062;7.474;2023-08-07T06:25:13;15.00;99.90
42261;DHT22;27926;48.062;7.474;2023-08-07T06:27:38;14.90;99.90
42261;DHT22;27926;48.062;7.474;2023-08-07T06:30:03;14.80;99.90
42261;DHT22;27926;48.062;7.474;2023-08-07T06:32:28;14.80;99.90
42261;DHT22;27926;48.062;7.474;2023-08-07T06:34:53;14.80;99.90
42261;DHT22;27926;48.062;7.474;2023-08-07T06:37:17;14.80;99.90
42261;DHT22;27926;48.062;7.474;2023-08-07T06:39:42;14.90;99.90
42261;DHT22;27926;48.062;7.474;2023-08-07T06:42:07;15.00;99.90
42261;DHT22;27926;48.062;7.474;2023-08-07T06:44:32;15.00;99.90
42261;DHT22;27926;48.062;7.474;2023-08-07T06:46:57;15.10;99.90
42261;DHT22;27926;48.062;7.474;2023-08-07T06:49:21;15.10;99.90
42261;DHT22;27926;48.062;7.474;2023-08-07T06:51:46;15.20;99.90
42261;DHT22;27926;48.062;7.474;2023-08-07T06:54:11;15.10;99.90
42261;DHT22;27926;48.062;7.474;2023-08-07T06:56:35;15.00;99.90
42261;DHT22;27926;48.062;7.474;2023-08-07T06:59:02;15.20;99.90
42261;DHT22;27926;48.062;7.474;2023-08-07T07:01:28;15.30;99.90
42261;DHT22;27926;48.062;7.474;2023-08-07T07:03:53;15.30;99.90
42261;DHT22;27926;48.062;7.474;2023-08-07T07:06:18;15.30;99.90
42261;DHT22;27926;48.062;7.474;2023-08-07T07:08:43;15.40;99.90
42261;DHT22;27926;48.062;7.474;2023-08-07T07:11:07;15.40;99.90
42261;DHT22;27926;48.062;7.474;2023-08-07T07:13:32;15.50;99.90
42261;DHT22;27926;48.062;7.474;2023-08-07T07:15:57;15.60;99.90
42261;DHT22;27926;48.062;7.474;2023-08-07T07:18:22;15.60;99.90
42261;DHT22;27926;48.062;7.474;2023-08-07T07:20:46;15.70;99.90
42261;DHT22;27926;48.062;7.474;2023-08-07T07:23:11;15.80;99.90
42261;DHT22;27926;48.062;7.474;2023-08-07T07:25:35;16.00;99.90
42261;DHT22;27926;48.062;7.474;2023-08-07T07:28:00;16.20;99.90
42261;DHT22;27926;48.062;7.474;2023-08-07T07:30:24;16.40;99.90
42261;DHT22;27926;48.062;7.474;2023-08-07T07:32:50;16.60;99.90
42261;DHT22;27926;48.062;7.474;2023-08-07T07:35:14;16.70;99.90
42261;DHT22;27926;48.062;7.474;2023-08-07T07:37:39;16.90;99.90
42261;DHT22;27926;48.062;7.474;2023-08-07T07:40:04;17.00;99.90
42261;DHT22;27926;48.062;7.474;2023-08-07T07:42:28;17.10;99.90
42261;DHT22;27926;48.062;7.474;2023-08-07T07:44:53;17.20;99.90
42261;DHT22;27926;48.062;7.474;2023-08-07T07:47:18;17.00;99.90
42261;DHT22;27926;48.062;7.474;2023-08-07T07:49:46;17.00;99.90
42261;DHT22;27926;48.062;7.474;2023-08-07T07:52:12;16.90;99.90
42261;DHT22;27926;48.062;7.474;2023-08-07T07:54:36;16.90;99.90
42261;DHT22;27926;48.062;7.474;2023-08-07T07:57:01;17.00;99.90
42261;DHT22;27926;48.062;7.474;2023-08-07T07:59:25;17.00;99.90
42261;DHT22;27926;48.062;7.474;2023-08-07T08:01:50;16.90;99.90
42261;DHT22;27926;48.062;7.474;2023-08-07T08:04:15;16.90;99.90
42261;DHT22;27926;48.062;7.474;2023-08-07T08:06:40;16.90;99.90
42261;DHT22;27926;48.062;7.474;2023-08-07T08:09:05;17.00;99.90
42261;DHT22;27926;48.062;7.474;2023-08-07T08:11:30;17.00;99.90
42261;DHT22;27926;48.062;7.474;2023-08-07T08:13:54;17.20;99.90
42261;DHT22;27926;48.062;7.474;2023-08-07T08:16:19;17.50;99.90
42261;DHT22;27926;48.062;7.474;2023-08-07T08:18:43;17.70;99.90
42261;DHT22;27926;48.062;7.474;2023-08-07T08:21:08;17.80;99.90
42261;DHT22;27926;48.062;7.474;2023-08-07T08:23:33;18.00;99.90
42261;DHT22;27926;48.062;7.474;2023-08-07T08:25:57;18.20;99.90
42261;DHT22;27926;48.062;7.474;2023-08-07T08:28:22;18.40;99.90
42261;DHT22;27926;48.062;7.474;2023-08-07T08:30:48;18.70;99.90
42261;DHT22;27926;48.062;7.474;2023-08-07T08:33:12;18.80;99.90
42261;DHT22;27926;48.062;7.474;2023-08-07T08:35:39;19.00;99.90
42261;DHT22;27926;48.062;7.474;2023-08-07T08:38:03;19.30;99.90
42261;DHT22;27926;48.062;7.474;2023-08-07T08:40:28;19.50;99.90
42261;DHT22;27926;48.062;7.474;2023-08-07T08:42:55;19.20;99.90
42261;DHT22;27926;48.062;7.474;2023-08-07T08:45:22;19.20;99.90
42261;DHT22;27926;48.062;7.474;2023-08-07T08:47:49;19.40;99.90
42261;DHT22;27926;48.062;7.474;2023-08-07T08:50:15;19.20;99.90
42261;DHT22;27926;48.062;7.474;2023-08-07T08:52:44;19.10;99.90
42261;DHT22;27926;48.062;7.474;2023-08-07T08:55:10;19.00;99.90
42261;DHT22;27926;48.062;7.474;2023-08-07T08:57:35;19.00;99.90
42261;DHT22;27926;48.062;7.474;2023-08-07T09:00:01;19.10;99.90
42261;DHT22;27926;48.062;7.474;2023-08-07T09:02:31;19.20;99.90
42261;DHT22;27926;48.062;7.474;2023-08-07T09:04:56;19.60;99.90
42261;DHT22;27926;48.062;7.474;2023-08-07T09:07:21;19.90;99.90
42261;DHT22;27926;48.062;7.474;2023-08-07T09:09:47;20.10;99.90
42261;DHT22;27926;48.062;7.474;2023-08-07T09:12:19;20.00;99.90
42261;DHT22;27926;48.062;7.474;2023-08-07T09:14:45;19.60;99.90
42261;DHT22;27926;48.062;7.474;2023-08-07T09:17:13;19.40;99.90
42261;DHT22;27926;48.062;7.474;2023-08-07T09:19:39;19.20;99.90
42261;DHT22;27926;48.062;7.474;2023-08-07T09:22:04;19.00;99.90
42261;DHT22;27926;48.062;7.474;2023-08-07T09:24:28;19.10;99.90
42261;DHT22;27926;48.062;7.474;2023-08-07T09:26:53;19.40;99.90
42261;DHT22;27926;48.062;7.474;2023-08-07T09:29:20;19.50;99.90
42261;DHT22;27926;48.062;7.474;2023-08-07T09:31:46;20.00;99.90
42261;DHT22;27926;48.062;7.474;2023-08-07T09:34:11;20.40;98.70
42261;DHT22;27926;48.062;7.474;2023-08-07T09:36:38;20.50;99.80
42261;DHT22;27926;48.062;7.474;2023-08-07T09:39:03;20.40;99.90
42261;DHT22;27926;48.062;7.474;2023-08-07T09:41:31;20.50;99.90
42261;DHT22;27926;48.062;7.474;2023-08-07T09:43:57;20.30;99.90
42261;DHT22;27926;48.062;7.474;2023-08-07T09:46:22;20.20;99.90
42261;DHT22;27926;48.062;7.474;2023-08-07T09:48:47;20.10;99.90
42261;DHT22;27926;48.062;7.474;2023-08-07T09:51:12;20.10;99.60
42261;DHT22;27926;48.062;7.474;2023-08-07T09:53:38;20.10;99.90
42261;DHT22;27926;48.062;7.474;2023-08-07T09:56:03;20.00;99.90
42261;DHT22;27926;48.062;7.474;2023-08-07T09:58:28;20.10;99.90
42261;DHT22;27926;48.062;7.474;2023-08-07T10:00:53;21.30;99.90
42261;DHT22;27926;48.062;7.474;2023-08-07T10:03:18;20.40;99.70
42261;DHT22;27926;48.062;7.474;2023-08-07T10:05:44;20.80;98.40
42261;DHT22;27926;48.062;7.474;2023-08-07T10:08:11;20.80;99.60
42261;DHT22;27926;48.062;7.474;2023-08-07T10:10:37;20.50;99.20
42261;DHT22;27926;48.062;7.474;2023-08-07T10:13:02;20.20;99.00
42261;DHT22;27926;48.062;7.474;2023-08-07T10:15:27;20.00;99.40
42261;DHT22;27926;48.062;7.474;2023-08-07T10:17:52;19.90;99.90
42261;DHT22;27926;48.062;7.474;2023-08-07T10:20:17;19.90;99.60
42261;DHT22;27926;48.062;7.474;2023-08-07T10:22:42;19.90;99.30
42261;DHT22;27926;48.062;7.474;2023-08-07T10:25:07;19.70;98.90
42261;DHT22;27926;48.062;7.474;2023-08-07T10:27:35;19.70;98.80
42261;DHT22;27926;48.062;7.474;2023-08-07T10:30:03;19.60;97.80
42261;DHT22;27926;48.062;7.474;2023-08-07T10:32:29;19.50;98.00
42261;DHT22;27926;48.062;7.474;2023-08-07T10:34:54;19.50;98.70
42261;DHT22;27926;48.062;7.474;2023-08-07T10:37:39;19.50;99.00
42261;DHT22;27926;48.062;7.474;2023-08-07T10:40:07;19.60;98.90
42261;DHT22;27926;48.062;7.474;2023-08-07T10:45:19;20.00;99.10
42261;DHT22;27926;48.062;7.474;2023-08-07T10:48:12;20.10;99.00
42261;DHT22;27926;48.062;7.474;2023-08-07T10:50:50;20.20;99.20
42261;DHT22;27926;48.062;7.474;2023-08-07T10:55:50;20.40;99.10
42261;DHT22;27926;48.062;7.474;2023-08-07T10:58:24;20.50;98.30
42261;DHT22;27926;48.062;7.474;2023-08-07T11:00:50;20.60;97.10
42261;DHT22;27926;48.062;7.474;2023-08-07T11:03:27;20.70;97.50
42261;DHT22;27926;48.062;7.474;2023-08-07T11:05:52;20.80;98.10
42261;DHT22;27926;48.062;7.474;2023-08-07T11:08:22;21.00;95.70
42261;DHT22;27926;48.062;7.474;2023-08-07T11:10:46;21.00;95.60
42261;DHT22;27926;48.062;7.474;2023-08-07T11:13:11;21.20;95.70
42261;DHT22;27926;48.062;7.474;2023-08-07T11:15:36;21.30;95.90
42261;DHT22;27926;48.062;7.474;2023-08-07T11:18:00;21.50;95.30
42261;DHT22;27926;48.062;7.474;2023-08-07T11:20:26;21.00;95.40
42261;DHT22;27926;48.062;7.474;2023-08-07T11:22:50;20.80;95.50
42261;DHT22;27926;48.062;7.474;2023-08-07T11:25:15;20.80;96.30
42261;DHT22;27926;48.062;7.474;2023-08-07T11:27:40;20.60;96.40
42261;DHT22;27926;48.062;7.474;2023-08-07T11:30:11;20.40;96.80
42261;DHT22;27926;48.062;7.474;2023-08-07T11:32:36;20.30;97.50
42261;DHT22;27926;48.062;7.474;2023-08-07T11:35:00;20.40;97.20
42261;DHT22;27926;48.062;7.474;2023-08-07T11:37:27;20.40;95.80
42261;DHT22;27926;48.062;7.474;2023-08-07T11:39:52;20.60;95.40
42261;DHT22;27926;48.062;7.474;2023-08-07T11:42:16;20.80;95.80
42261;DHT22;27926;48.062;7.474;2023-08-07T11:44:41;20.80;95.30
42261;DHT22;27926;48.062;7.474;2023-08-07T11:47:06;21.10;94.60
42261;DHT22;27926;48.062;7.474;2023-08-07T11:49:31;21.20;94.40
42261;DHT22;27926;48.062;7.474;2023-08-07T11:51:56;21.20;94.40
42261;DHT22;27926;48.062;7.474;2023-08-07T11:54:22;21.40;95.10
42261;DHT22;27926;48.062;7.474;2023-08-07T11:56:47;21.50;93.80
42261;DHT22;27926;48.062;7.474;2023-08-07T11:59:11;21.80;94.40
42261;DHT22;27926;48.062;7.474;2023-08-07T12:01:38;21.90;93.50
42261;DHT22;27926;48.062;7.474;2023-08-07T12:06:30;22.00;93.00
42261;DHT22;27926;48.062;7.474;2023-08-07T12:08:56;21.90;92.80
42261;DHT22;27926;48.062;7.474;2023-08-07T12:11:21;21.40;93.90
42261;DHT22;27926;48.062;7.474;2023-08-07T12:13:45;21.30;93.80
42261;DHT22;27926;48.062;7.474;2023-08-07T12:16:11;21.00;93.20
42261;DHT22;27926;48.062;7.474;2023-08-07T12:18:46;20.90;94.00
42261;DHT22;27926;48.062;7.474;2023-08-07T12:21:11;21.40;95.30
42261;DHT22;27926;48.062;7.474;2023-08-07T12:23:37;21.80;94.20
42261;DHT22;27926;48.062;7.474;2023-08-07T12:26:03;22.00;94.10
42261;DHT22;27926;48.062;7.474;2023-08-07T12:28:30;22.00;93.50
42261;DHT22;27926;48.062;7.474;2023-08-07T12:30:56;22.00;93.50
42261;DHT22;27926;48.062;7.474;2023-08-07T12:33:20;22.00;93.40
42261;DHT22;27926;48.062;7.474;2023-08-07T12:35:45;21.60;93.20
42261;DHT22;27926;48.062;7.474;2023-08-07T12:38:10;21.10;94.30
42261;DHT22;27926;48.062;7.474;2023-08-07T12:40:37;20.70;99.90
42261;DHT22;27926;48.062;7.474;2023-08-07T12:43:03;20.30;99.90
42261;DHT22;27926;48.062;7.474;2023-08-07T12:45:28;20.10;99.90
42261;DHT22;27926;48.062;7.474;2023-08-07T12:47:52;20.00;99.60
42261;DHT22;27926;48.062;7.474;2023-08-07T12:50:18;19.80;99.20
42261;DHT22;27926;48.062;7.474;2023-08-07T12:52:43;19.80;99.90
42261;DHT22;27926;48.062;7.474;2023-08-07T12:55:08;20.00;99.90
42261;DHT22;27926;48.062;7.474;2023-08-07T12:57:32;20.40;98.70
42261;DHT22;27926;48.062;7.474;2023-08-07T12:59:57;20.60;97.90
42261;DHT22;27926;48.062;7.474;2023-08-07T13:02:22;20.80;96.70
42261;DHT22;27926;48.062;7.474;2023-08-07T13:04:46;21.00;95.80
42261;DHT22;27926;48.062;7.474;2023-08-07T13:07:11;21.00;95.60
42261;DHT22;27926;48.062;7.474;2023-08-07T13:09:35;20.60;96.10
42261;DHT22;27926;48.062;7.474;2023-08-07T13:12:00;20.70;96.90
42261;DHT22;27926;48.062;7.474;2023-08-07T13:14:25;20.90;96.20
42261;DHT22;27926;48.062;7.474;2023-08-07T13:16:49;21.30;96.10
42261;DHT22;27926;48.062;7.474;2023-08-07T13:19:15;21.40;95.40
42261;DHT22;27926;48.062;7.474;2023-08-07T13:21:40;21.30;96.00
42261;DHT22;27926;48.062;7.474;2023-08-07T13:24:04;21.50;95.30
42261;DHT22;27926;48.062;7.474;2023-08-07T13:26:29;21.70;95.60
42261;DHT22;27926;48.062;7.474;2023-08-07T13:28:54;22.10;95.00
42261;DHT22;27926;48.062;7.474;2023-08-07T13:31:18;22.10;95.20
42261;DHT22;27926;48.062;7.474;2023-08-07T13:33:43;22.20;95.30
42261;DHT22;27926;48.062;7.474;2023-08-07T13:36:07;22.40;93.90
42261;DHT22;27926;48.062;7.474;2023-08-07T13:38:32;22.20;93.90
42261;DHT22;27926;48.062;7.474;2023-08-07T13:40:57;21.80;94.10
42261;DHT22;27926;48.062;7.474;2023-08-07T13:43:21;21.50;94.60
42261;DHT22;27926;48.062;7.474;2023-08-07T13:45:46;21.10;94.70
42261;DHT22;27926;48.062;7.474;2023-08-07T13:48:11;21.10;95.90
42261;DHT22;27926;48.062;7.474;2023-08-07T13:50:35;21.10;94.70
42261;DHT22;27926;48.062;7.474;2023-08-07T13:53:02;20.90;94.90
42261;DHT22;27926;48.062;7.474;2023-08-07T13:55:26;20.70;95.20
42261;DHT22;27926;48.062;7.474;2023-08-07T13:57:51;20.60;95.50
42261;DHT22;27926;48.062;7.474;2023-08-07T14:00:15;20.40;95.20
42261;DHT22;27926;48.062;7.474;2023-08-07T14:02:40;20.30;95.70
42261;DHT22;27926;48.062;7.474;2023-08-07T14:05:05;20.50;96.60
42261;DHT22;27926;48.062;7.474;2023-08-07T14:07:30;20.70;95.50
42261;DHT22;27926;48.062;7.474;2023-08-07T14:09:54;21.10;96.40
42261;DHT22;27926;48.062;7.474;2023-08-07T14:12:19;21.60;94.60
42261;DHT22;27926;48.062;7.474;2023-08-07T14:14:43;21.80;94.20
42261;DHT22;27926;48.062;7.474;2023-08-07T14:17:08;21.80;93.30
42261;DHT22;27926;48.062;7.474;2023-08-07T14:19:32;21.70;93.70
42261;DHT22;27926;48.062;7.474;2023-08-07T14:21:57;22.80;94.90
42261;DHT22;27926;48.062;7.474;2023-08-07T14:24:22;21.90;92.90
42261;DHT22;27926;48.062;7.474;2023-08-07T14:26:46;21.60;92.70
42261;DHT22;27926;48.062;7.474;2023-08-07T14:29:12;21.40;92.70
42261;DHT22;27926;48.062;7.474;2023-08-07T14:31:37;21.20;92.50
42261;DHT22;27926;48.062;7.474;2023-08-07T14:34:02;21.20;92.80
42261;DHT22;27926;48.062;7.474;2023-08-07T14:36:27;21.10;93.00
42261;DHT22;27926;48.062;7.474;2023-08-07T14:38:51;21.20;92.90
42261;DHT22;27926;48.062;7.474;2023-08-07T14:41:17;21.10;92.70
42261;DHT22;27926;48.062;7.474;2023-08-07T14:43:42;20.90;93.20
42261;DHT22;27926;48.062;7.474;2023-08-07T14:46:06;20.80;93.60
42261;DHT22;27926;48.062;7.474;2023-08-07T14:48:31;20.80;94.30
42261;DHT22;27926;48.062;7.474;2023-08-07T14:50:56;20.90;94.60
42261;DHT22;27926;48.062;7.474;2023-08-07T14:53:21;21.20;93.80
42261;DHT22;27926;48.062;7.474;2023-08-07T14:55:46;21.50;92.80
42261;DHT22;27926;48.062;7.474;2023-08-07T14:58:13;21.50;92.90
42261;DHT22;27926;48.062;7.474;2023-08-07T15:00:38;21.50;92.60
42261;DHT22;27926;48.062;7.474;2023-08-07T15:03:03;21.50;93.30
42261;DHT22;27926;48.062;7.474;2023-08-07T15:05:27;21.70;92.90
42261;DHT22;27926;48.062;7.474;2023-08-07T15:07:52;21.70;92.20
42261;DHT22;27926;48.062;7.474;2023-08-07T15:10:17;21.70;92.80
42261;DHT22;27926;48.062;7.474;2023-08-07T15:12:41;21.80;92.90
42261;DHT22;27926;48.062;7.474;2023-08-07T15:15:06;21.90;92.30
42261;DHT22;27926;48.062;7.474;2023-08-07T15:17:31;21.90;92.10
42261;DHT22;27926;48.062;7.474;2023-08-07T15:19:56;21.90;93.00
42261;DHT22;27926;48.062;7.474;2023-08-07T15:22:21;21.80;93.10
42261;DHT22;27926;48.062;7.474;2023-08-07T15:24:46;21.80;92.20
42261;DHT22;27926;48.062;7.474;2023-08-07T15:27:12;21.80;92.30
42261;DHT22;27926;48.062;7.474;2023-08-07T15:29:36;21.50;92.90
42261;DHT22;27926;48.062;7.474;2023-08-07T15:32:05;21.20;91.70
42261;DHT22;27926;48.062;7.474;2023-08-07T15:34:30;21.00;92.40